sensor_id;sensor_type;location;lat;lon;timestamp;P1;durP1;ratioP1;P2;durP2;ratioP2
57389;SDS011;43217;52.694;6.214;2023-07-13T00:00:19;10.30;;;3.42;;
57389;SDS011;43217;52.694;6.214;2023-07-13T00:02:45;9.23;;;3.10;;
57389;SDS011;43217;52.694;6.214;2023-07-13T00:05:11;9.07;;;3.67;;
57389;SDS011;43217;52.694;6.214;2023-07-13T00:07:37;8.85;;;2.92;;
57389;SDS011;43217;52.694;6.214;2023-07-13T00:10:03;8.90;;;3.20;;
57389;SDS011;43217;52.694;6.214;2023-07-13T00:12:31;8.35;;;2.72;;
57389;SDS011;43217;52.694;6.214;2023-07-13T00:15:03;9.75;;;3.28;;
57389;SDS011;43217;52.694;6.214;2023-07-13T00:17:31;7.35;;;3.15;;
57389;SDS011;43217;52.694;6.214;2023-07-13T00:19:57;6.43;;;2.83;;
57389;SDS011;43217;52.694;6.214;2023-07-13T00:22:23;10.35;;;3.40;;
57389;SDS011;43217;52.694;6.214;2023-07-13T00:24:53;8.18;;;3.65;;
57389;SDS011;43217;52.694;6.214;2023-07-13T00:27:22;7.20;;;3.03;;
57389;SDS011;43217;52.694;6.214;2023-07-13T00:29:49;9.63;;;3.17;;
57389;SDS011;43217;52.694;6.214;2023-07-13T00:32:14;7.57;;;4.13;;
57389;SDS011;43217;52.694;6.214;2023-07-13T00:34:40;9.00;;;4.05;;
57389;SDS011;43217;52.694;6.214;2023-07-13T00:37:06;12.45;;;5.20;;
57389;SDS011;43217;52.694;6.214;2023-07-13T00:39:33;10.52;;;4.72;;
57389;SDS011;43217;52.694;6.214;2023-07-13T00:42:00;10.02;;;4.60;;
57389;SDS011;43217;52.694;6.214;2023-07-13T00:44:26;9.68;;;4.28;;
57389;SDS011;43217;52.694;6.214;2023-07-13T00:46:52;8.55;;;4.13;;
57389;SDS011;43217;52.694;6.214;2023-07-13T00:49:20;10.18;;;4.15;;
57389;SDS011;43217;52.694;6.214;2023-07-13T00:51:49;12.20;;;4.43;;
57389;SDS011;43217;52.694;6.214;2023-07-13T00:54:19;12.90;;;4.82;;
57389;SDS011;43217;52.694;6.214;2023-07-13T00:56:48;7.85;;;3.33;;
57389;SDS011;43217;52.694;6.214;2023-07-13T00:59:16;7.85;;;3.42;;
57389;SDS011;43217;52.694;6.214;2023-07-13T01:01:44;10.48;;;3.35;;
57389;SDS011;43217;52.694;6.214;2023-07-13T01:04:09;9.40;;;3.30;;
57389;SDS011;43217;52.694;6.214;2023-07-13T01:06:36;8.77;;;3.20;;
57389;SDS011;43217;52.694;6.214;2023-07-13T01:11:30;8.75;;;3.83;;
57389;SDS011;43217;52.694;6.214;2023-07-13T01:13:56;9.15;;;3.72;;
57389;SDS011;43217;52.694;6.214;2023-07-13T01:16:24;7.28;;;3.53;;
57389;SDS011;43217;52.694;6.214;2023-07-13T01:18:52;7.85;;;3.90;;
57389;SDS011;43217;52.694;6.214;2023-07-13T01:21:18;11.10;;;3.35;;
57389;SDS011;43217;52.694;6.214;2023-07-13T01:23:44;9.18;;;3.45;;
57389;SDS011;43217;52.694;6.214;2023-07-13T01:26:10;7.97;;;3.38;;
57389;SDS011;43217;52.694;6.214;2023-07-13T01:28:36;7.55;;;3.13;;
57389;SDS011;43217;52.694;6.214;2023-07-13T01:31:03;8.60;;;3.53;;
57389;SDS011;43217;52.694;6.214;2023-07-13T01:33:29;9.88;;;3.95;;
57389;SDS011;43217;52.694;6.214;2023-07-13T01:35:55;10.73;;;3.75;;
57389;SDS011;43217;52.694;6.214;2023-07-13T01:38:22;9.68;;;3.50;;
57389;SDS011;43217;52.694;6.214;2023-07-13T01:40:50;9.07;;;3.40;;
57389;SDS011;43217;52.694;6.214;2023-07-13T01:43:17;8.57;;;3.50;;
57389;SDS011;43217;52.694;6.214;2023-07-13T01:45:43;10.95;;;4.50;;
57389;SDS011;43217;52.694;6.214;2023-07-13T01:48:09;8.85;;;3.35;;
57389;SDS011;43217;52.694;6.214;2023-07-13T01:50:35;11.43;;;3.70;;
57389;SDS011;43217;52.694;6.214;2023-07-13T01:53:01;8.45;;;3.08;;
57389;SDS011;43217;52.694;6.214;2023-07-13T01:55:27;11.68;;;3.25;;
57389;SDS011;43217;52.694;6.214;2023-07-13T01:57:54;8.75;;;3.00;;
57389;SDS011;43217;52.694;6.214;2023-07-13T02:00:21;8.68;;;3.40;;
57389;SDS011;43217;52.694;6.214;2023-07-13T02:02:47;9.45;;;3.60;;
57389;SDS011;43217;52.694;6.214;2023-07-13T02:05:13;9.60;;;3.28;;
57389;SDS011;43217;52.694;6.214;2023-07-13T02:07:39;10.40;;;3.47;;
57389;SDS011;43217;52.694;6.214;2023-07-13T02:10:06;8.00;;;3.17;;
57389;SDS011;43217;52.694;6.214;2023-07-13T02:14:58;6.43;;;3.10;;
57389;SDS011;43217;52.694;6.214;2023-07-13T02:17:25;9.20;;;3.45;;
57389;SDS011;43217;52.694;6.214;2023-07-13T02:19:51;8.95;;;3.13;;
57389;SDS011;43217;52.694;6.214;2023-07-13T02:22:17;8.63;;;3.50;;
57389;SDS011;43217;52.694;6.214;2023-07-13T02:24:43;11.27;;;3.45;;
57389;SDS011;43217;52.694;6.214;2023-07-13T02:27:09;8.63;;;3.15;;
57389;SDS011;43217;52.694;6.214;2023-07-13T02:29:35;8.38;;;3.53;;
57389;SDS011;43217;52.694;6.214;2023-07-13T02:32:01;10.57;;;3.53;;
57389;SDS011;43217;52.694;6.214;2023-07-13T02:34:26;11.07;;;3.55;;
57389;SDS011;43217;52.694;6.214;2023-07-13T02:36:52;9.77;;;3.40;;
57389;SDS011;43217;52.694;6.214;2023-07-13T02:39:18;11.90;;;3.50;;
57389;SDS011;43217;52.694;6.214;2023-07-13T02:41:43;10.88;;;3.58;;
57389;SDS011;43217;52.694;6.214;2023-07-13T02:44:09;12.88;;;3.95;;
57389;SDS011;43217;52.694;6.214;2023-07-13T02:46:40;11.18;;;3.95;;
57389;SDS011;43217;52.694;6.214;2023-07-13T02:49:05;8.55;;;3.25;;
57389;SDS011;43217;52.694;6.214;2023-07-13T02:51:31;9.30;;;3.90;;
57389;SDS011;43217;52.694;6.214;2023-07-13T02:56:26;8.00;;;3.45;;
57389;SDS011;43217;52.694;6.214;2023-07-13T02:58:53;12.27;;;3.75;;
57389;SDS011;43217;52.694;6.214;2023-07-13T03:01:20;11.98;;;4.50;;
57389;SDS011;43217;52.694;6.214;2023-07-13T03:03:47;10.65;;;3.88;;
57389;SDS011;43217;52.694;6.214;2023-07-13T03:06:14;7.82;;;4.20;;
57389;SDS011;43217;52.694;6.214;2023-07-13T03:08:40;10.02;;;4.18;;
57389;SDS011;43217;52.694;6.214;2023-07-13T03:11:14;9.05;;;4.05;;
57389;SDS011;43217;52.694;6.214;2023-07-13T03:13:42;9.98;;;4.18;;
57389;SDS011;43217;52.694;6.214;2023-07-13T03:16:09;9.48;;;3.70;;
57389;SDS011;43217;52.694;6.214;2023-07-13T03:18:36;10.07;;;3.90;;
57389;SDS011;43217;52.694;6.214;2023-07-13T03:21:02;7.57;;;3.77;;
57389;SDS011;43217;52.694;6.214;2023-07-13T03:23:29;11.45;;;4.00;;
57389;SDS011;43217;52.694;6.214;2023-07-13T03:26:13;10.38;;;4.38;;
57389;SDS011;43217;52.694;6.214;2023-07-13T03:28:41;10.00;;;3.55;;
57389;SDS011;43217;52.694;6.214;2023-07-13T03:31:09;10.77;;;4.03;;
57389;SDS011;43217;52.694;6.214;2023-07-13T03:33:37;10.00;;;3.95;;
57389;SDS011;43217;52.694;6.214;2023-07-13T03:36:03;9.57;;;3.80;;
57389;SDS011;43217;52.694;6.214;2023-07-13T03:40:56;10.40;;;3.97;;
57389;SDS011;43217;52.694;6.214;2023-07-13T03:43:22;7.57;;;3.67;;
57389;SDS011;43217;52.694;6.214;2023-07-13T03:45:47;8.98;;;3.72;;
57389;SDS011;43217;52.694;6.214;2023-07-13T03:48:13;8.68;;;3.72;;
57389;SDS011;43217;52.694;6.214;2023-07-13T03:50:39;12.02;;;4.65;;
57389;SDS011;43217;52.694;6.214;2023-07-13T03:53:05;9.65;;;4.15;;
57389;SDS011;43217;52.694;6.214;2023-07-13T03:55:30;12.32;;;4.80;;
57389;SDS011;43217;52.694;6.214;2023-07-13T03:58:00;11.70;;;5.20;;
57389;SDS011;43217;52.694;6.214;2023-07-13T04:00:46;8.85;;;4.28;;
57389;SDS011;43217;52.694;6.214;2023-07-13T04:03:12;10.90;;;4.50;;
57389;SDS011;43217;52.694;6.214;2023-07-13T04:05:38;10.32;;;4.85;;
57389;SDS011;43217;52.694;6.214;2023-07-13T04:08:05;8.18;;;4.97;;
57389;SDS011;43217;52.694;6.214;2023-07-13T04:10:31;8.65;;;4.63;;
57389;SDS011;43217;52.694;6.214;2023-07-13T04:12:57;9.60;;;4.60;;
57389;SDS011;43217;52.694;6.214;2023-07-13T04:15:23;8.30;;;4.25;;
57389;SDS011;43217;52.694;6.214;2023-07-13T04:17:48;10.45;;;4.00;;
57389;SDS011;43217;52.694;6.214;2023-07-13T04:20:14;8.85;;;4.15;;
57389;SDS011;43217;52.694;6.214;2023-07-13T04:22:40;8.77;;;4.22;;
57389;SDS011;43217;52.694;6.214;2023-07-13T04:25:05;9.77;;;4.68;;
57389;SDS011;43217;52.694;6.214;2023-07-13T04:27:31;10.77;;;4.03;;
57389;SDS011;43217;52.694;6.214;2023-07-13T04:29:57;10.63;;;4.35;;
57389;SDS011;43217;52.694;6.214;2023-07-13T04:32:23;11.10;;;4.07;;
57389;SDS011;43217;52.694;6.214;2023-07-13T04:34:49;8.02;;;3.83;;
57389;SDS011;43217;52.694;6.214;2023-07-13T04:37:21;7.45;;;3.75;;
57389;SDS011;43217;52.694;6.214;2023-07-13T04:39:47;9.32;;;4.20;;
57389;SDS011;43217;52.694;6.214;2023-07-13T04:42:12;11.60;;;4.20;;
57389;SDS011;43217;52.694;6.214;2023-07-13T04:44:38;8.63;;;3.65;;
57389;SDS011;43217;52.694;6.214;2023-07-13T04:47:04;9.10;;;3.80;;
57389;SDS011;43217;52.694;6.214;2023-07-13T04:49:29;7.22;;;4.13;;
57389;SDS011;43217;52.694;6.214;2023-07-13T04:51:55;9.02;;;3.83;;
57389;SDS011;43217;52.694;6.214;2023-07-13T04:54:21;12.63;;;4.10;;
57389;SDS011;43217;52.694;6.214;2023-07-13T04:56:47;10.35;;;4.00;;
57389;SDS011;43217;52.694;6.214;2023-07-13T04:59:13;9.95;;;4.30;;
57389;SDS011;43217;52.694;6.214;2023-07-13T05:01:38;9.13;;;3.60;;
57389;SDS011;43217;52.694;6.214;2023-07-13T05:04:05;8.00;;;3.92;;
57389;SDS011;43217;52.694;6.214;2023-07-13T05:06:31;9.63;;;4.20;;
57389;SDS011;43217;52.694;6.214;2023-07-13T05:08:58;6.22;;;3.95;;
57389;SDS011;43217;52.694;6.214;2023-07-13T05:11:23;9.52;;;4.38;;
57389;SDS011;43217;52.694;6.214;2023-07-13T05:13:49;6.82;;;3.47;;
57389;SDS011;43217;52.694;6.214;2023-07-13T05:16:15;12.80;;;4.28;;
57389;SDS011;43217;52.694;6.214;2023-07-13T05:18:42;8.32;;;3.83;;
57389;SDS011;43217;52.694;6.214;2023-07-13T05:21:08;7.00;;;4.28;;
57389;SDS011;43217;52.694;6.214;2023-07-13T05:26:01;8.45;;;4.00;;
57389;SDS011;43217;52.694;6.214;2023-07-13T05:28:28;7.43;;;3.85;;
57389;SDS011;43217;52.694;6.214;2023-07-13T05:30:55;8.75;;;4.00;;
57389;SDS011;43217;52.694;6.214;2023-07-13T05:33:21;11.15;;;4.32;;
57389;SDS011;43217;52.694;6.214;2023-07-13T05:35:47;8.90;;;4.32;;
57389;SDS011;43217;52.694;6.214;2023-07-13T05:38:13;10.93;;;4.20;;
57389;SDS011;43217;52.694;6.214;2023-07-13T05:40:38;10.20;;;4.15;;
57389;SDS011;43217;52.694;6.214;2023-07-13T05:43:04;10.88;;;4.53;;
57389;SDS011;43217;52.694;6.214;2023-07-13T05:45:30;9.48;;;4.03;;
57389;SDS011;43217;52.694;6.214;2023-07-13T05:47:56;9.43;;;4.55;;
57389;SDS011;43217;52.694;6.214;2023-07-13T05:50:21;9.07;;;4.15;;
57389;SDS011;43217;52.694;6.214;2023-07-13T05:52:47;8.05;;;3.90;;
57389;SDS011;43217;52.694;6.214;2023-07-13T05:55:13;9.55;;;4.78;;
57389;SDS011;43217;52.694;6.214;2023-07-13T05:57:38;8.80;;;3.83;;
57389;SDS011;43217;52.694;6.214;2023-07-13T06:00:04;11.20;;;3.90;;
57389;SDS011;43217;52.694;6.214;2023-07-13T06:02:31;10.25;;;4.57;;
57389;SDS011;43217;52.694;6.214;2023-07-13T06:04:56;9.23;;;3.70;;
57389;SDS011;43217;52.694;6.214;2023-07-13T06:07:22;12.40;;;4.38;;
57389;SDS011;43217;52.694;6.214;2023-07-13T06:09:48;9.05;;;3.50;;
57389;SDS011;43217;52.694;6.214;2023-07-13T06:12:14;9.05;;;4.00;;
57389;SDS011;43217;52.694;6.214;2023-07-13T06:14:39;11.95;;;3.85;;
57389;SDS011;43217;52.694;6.214;2023-07-13T06:17:05;11.55;;;3.80;;
57389;SDS011;43217;52.694;6.214;2023-07-13T06:19:31;10.25;;;4.20;;
57389;SDS011;43217;52.694;6.214;2023-07-13T06:21:56;8.77;;;4.15;;
57389;SDS011;43217;52.694;6.214;2023-07-13T06:24:23;7.28;;;3.42;;
57389;SDS011;43217;52.694;6.214;2023-07-13T06:26:49;10.45;;;4.03;;
57389;SDS011;43217;52.694;6.214;2023-07-13T06:29:15;7.40;;;3.47;;
57389;SDS011;43217;52.694;6.214;2023-07-13T06:31:41;6.47;;;3.80;;
57389;SDS011;43217;52.694;6.214;2023-07-13T06:34:07;7.38;;;3.90;;
57389;SDS011;43217;52.694;6.214;2023-07-13T06:36:33;9.48;;;4.47;;
57389;SDS011;43217;52.694;6.214;2023-07-13T06:38:58;13.13;;;3.95;;
57389;SDS011;43217;52.694;6.214;2023-07-13T06:41:24;9.85;;;3.90;;
57389;SDS011;43217;52.694;6.214;2023-07-13T06:43:53;8.98;;;3.70;;
57389;SDS011;43217;52.694;6.214;2023-07-13T06:46:22;7.03;;;4.18;;
57389;SDS011;43217;52.694;6.214;2023-07-13T06:48:48;12.57;;;4.28;;
57389;SDS011;43217;52.694;6.214;2023-07-13T06:51:14;8.35;;;3.75;;
57389;SDS011;43217;52.694;6.214;2023-07-13T06:53:40;8.50;;;3.70;;
57389;SDS011;43217;52.694;6.214;2023-07-13T06:56:07;10.05;;;3.90;;
57389;SDS011;43217;52.694;6.214;2023-07-13T06:58:33;10.43;;;4.53;;
57389;SDS011;43217;52.694;6.214;2023-07-13T07:00:59;11.23;;;4.50;;
57389;SDS011;43217;52.694;6.214;2023-07-13T07:03:25;9.68;;;4.20;;
57389;SDS011;43217;52.694;6.214;2023-07-13T07:05:50;8.52;;;4.30;;
57389;SDS011;43217;52.694;6.214;2023-07-13T07:08:16;10.57;;;4.25;;
57389;SDS011;43217;52.694;6.214;2023-07-13T07:10:42;10.52;;;4.50;;
57389;SDS011;43217;52.694;6.214;2023-07-13T07:13:07;9.75;;;4.70;;
57389;SDS011;43217;52.694;6.214;2023-07-13T07:15:34;11.60;;;5.05;;
57389;SDS011;43217;52.694;6.214;2023-07-13T07:18:00;11.55;;;5.20;;
57389;SDS011;43217;52.694;6.214;2023-07-13T07:20:25;14.90;;;5.35;;
57389;SDS011;43217;52.694;6.214;2023-07-13T07:22:52;12.00;;;5.80;;
57389;SDS011;43217;52.694;6.214;2023-07-13T07:25:17;12.27;;;4.85;;
57389;SDS011;43217;52.694;6.214;2023-07-13T07:27:44;12.70;;;5.50;;
57389;SDS011;43217;52.694;6.214;2023-07-13T07:30:10;14.95;;;5.15;;
57389;SDS011;43217;52.694;6.214;2023-07-13T07:32:36;15.15;;;5.47;;
57389;SDS011;43217;52.694;6.214;2023-07-13T07:35:02;10.63;;;5.18;;
57389;SDS011;43217;52.694;6.214;2023-07-13T07:37:28;10.77;;;4.70;;
57389;SDS011;43217;52.694;6.214;2023-07-13T07:39:54;9.18;;;5.22;;
57389;SDS011;43217;52.694;6.214;2023-07-13T07:42:19;11.98;;;5.43;;
57389;SDS011;43217;52.694;6.214;2023-07-13T07:44:45;9.77;;;4.50;;
57389;SDS011;43217;52.694;6.214;2023-07-13T07:47:11;10.63;;;5.80;;
57389;SDS011;43217;52.694;6.214;2023-07-13T07:49:36;10.35;;;5.03;;
57389;SDS011;43217;52.694;6.214;2023-07-13T07:52:03;8.88;;;4.97;;
57389;SDS011;43217;52.694;6.214;2023-07-13T07:54:29;13.60;;;6.20;;
57389;SDS011;43217;52.694;6.214;2023-07-13T07:56:55;6.45;;;4.65;;
57389;SDS011;43217;52.694;6.214;2023-07-13T07:59:21;13.25;;;5.15;;
57389;SDS011;43217;52.694;6.214;2023-07-13T08:01:46;9.05;;;4.10;;
57389;SDS011;43217;52.694;6.214;2023-07-13T08:04:15;9.80;;;4.60;;
57389;SDS011;43217;52.694;6.214;2023-07-13T08:06:41;9.77;;;4.55;;
57389;SDS011;43217;52.694;6.214;2023-07-13T08:09:07;10.18;;;4.70;;
57389;SDS011;43217;52.694;6.214;2023-07-13T08:11:33;10.57;;;4.55;;
57389;SDS011;43217;52.694;6.214;2023-07-13T08:14:00;9.80;;;3.83;;
57389;SDS011;43217;52.694;6.214;2023-07-13T08:16:26;10.43;;;4.97;;
57389;SDS011;43217;52.694;6.214;2023-07-13T08:18:52;8.38;;;4.25;;
57389;SDS011;43217;52.694;6.214;2023-07-13T08:21:18;10.98;;;5.28;;
57389;SDS011;43217;52.694;6.214;2023-07-13T08:23:47;8.95;;;4.40;;
57389;SDS011;43217;52.694;6.214;2023-07-13T08:26:12;8.48;;;4.70;;
57389;SDS011;43217;52.694;6.214;2023-07-13T08:28:38;12.15;;;5.28;;
57389;SDS011;43217;52.694;6.214;2023-07-13T08:31:04;10.27;;;4.68;;
57389;SDS011;43217;52.694;6.214;2023-07-13T08:33:32;9.48;;;4.63;;
57389;SDS011;43217;52.694;6.214;2023-07-13T08:35:59;10.07;;;4.63;;
57389;SDS011;43217;52.694;6.214;2023-07-13T08:38:25;8.40;;;4.82;;
57389;SDS011;43217;52.694;6.214;2023-07-13T08:40:52;11.68;;;5.10;;
57389;SDS011;43217;52.694;6.214;2023-07-13T08:43:30;12.60;;;5.05;;
57389;SDS011;43217;52.694;6.214;2023-07-13T08:46:08;12.60;;;5.10;;
57389;SDS011;43217;52.694;6.214;2023-07-13T08:48:44;8.32;;;4.18;;
57389;SDS011;43217;52.694;6.214;2023-07-13T08:51:23;7.43;;;4.28;;
57389;SDS011;43217;52.694;6.214;2023-07-13T08:53:56;5.15;;;4.05;;
57389;SDS011;43217;52.694;6.214;2023-07-13T08:56:28;6.22;;;4.85;;
57389;SDS011;43217;52.694;6.214;2023-07-13T08:58:56;5.80;;;4.78;;
57389;SDS011;43217;52.694;6.214;2023-07-13T09:04:32;5.68;;;4.70;;
57389;SDS011;43217;52.694;6.214;2023-07-13T09:07:19;5.50;;;4.00;;
57389;SDS011;43217;52.694;6.214;2023-07-13T09:10:15;5.40;;;3.67;;
57389;SDS011;43217;52.694;6.214;2023-07-13T09:15:31;5.57;;;3.50;;
57389;SDS011;43217;52.694;6.214;2023-07-13T09:18:10;5.50;;;3.53;;
57389;SDS011;43217;52.694;6.214;2023-07-13T09:20:57;5.65;;;3.65;;
57389;SDS011;43217;52.694;6.214;2023-07-13T09:23:27;7.15;;;3.55;;
57389;SDS011;43217;52.694;6.214;2023-07-13T09:25:58;6.20;;;4.00;;
57389;SDS011;43217;52.694;6.214;2023-07-13T09:28:49;4.75;;;3.80;;
57389;SDS011;43217;52.694;6.214;2023-07-13T09:31:20;7.72;;;4.50;;
57389;SDS011;43217;52.694;6.214;2023-07-13T09:33:49;5.40;;;4.40;;
57389;SDS011;43217;52.694;6.214;2023-07-13T09:38:57;6.25;;;4.65;;
57389;SDS011;43217;52.694;6.214;2023-07-13T09:41:46;6.45;;;5.10;;
57389;SDS011;43217;52.694;6.214;2023-07-13T09:47:26;8.68;;;5.70;;
57389;SDS011;43217;52.694;6.214;2023-07-13T09:50:04;7.65;;;6.85;;
57389;SDS011;43217;52.694;6.214;2023-07-13T09:52:41;8.20;;;6.28;;
57389;SDS011;43217;52.694;6.214;2023-07-13T09:57:53;8.60;;;6.70;;
57389;SDS011;43217;52.694;6.214;2023-07-13T10:00:24;7.78;;;6.95;;
57389;SDS011;43217;52.694;6.214;2023-07-13T10:05:46;8.95;;;7.57;;
57389;SDS011;43217;52.694;6.214;2023-07-13T10:08:24;8.25;;;7.20;;
57389;SDS011;43217;52.694;6.214;2023-07-13T10:11:09;9.40;;;6.82;;
57389;SDS011;43217;52.694;6.214;2023-07-13T10:13:44;7.55;;;6.20;;
57389;SDS011;43217;52.694;6.214;2023-07-13T10:16:15;7.75;;;6.20;;
57389;SDS011;43217;52.694;6.214;2023-07-13T10:18:57;8.07;;;6.05;;
57389;SDS011;43217;52.694;6.214;2023-07-13T10:21:27;6.05;;;5.15;;
57389;SDS011;43217;52.694;6.214;2023-07-13T10:24:18;6.70;;;4.55;;
57389;SDS011;43217;52.694;6.214;2023-07-13T10:27:36;5.20;;;4.70;;
57389;SDS011;43217;52.694;6.214;2023-07-13T10:29:37;8.88;;;5.28;;
57389;SDS011;43217;52.694;6.214;2023-07-13T10:32:11;8.55;;;6.10;;
57389;SDS011;43217;52.694;6.214;2023-07-13T10:34:38;6.35;;;5.40;;
57389;SDS011;43217;52.694;6.214;2023-07-13T10:37:05;10.45;;;6.10;;
57389;SDS011;43217;52.694;6.214;2023-07-13T10:39:34;7.88;;;5.80;;
57389;SDS011;43217;52.694;6.214;2023-07-13T10:42:01;5.63;;;3.90;;
57389;SDS011;43217;52.694;6.214;2023-07-13T10:44:31;3.97;;;3.08;;
57389;SDS011;43217;52.694;6.214;2023-07-13T10:49:31;4.38;;;3.10;;
57389;SDS011;43217;52.694;6.214;2023-07-13T10:51:58;5.60;;;3.42;;
57389;SDS011;43217;52.694;6.214;2023-07-13T10:54:30;3.63;;;3.00;;
57389;SDS011;43217;52.694;6.214;2023-07-13T10:57:19;3.35;;;2.55;;
57389;SDS011;43217;52.694;6.214;2023-07-13T11:00:10;2.65;;;2.45;;
57389;SDS011;43217;52.694;6.214;2023-07-13T11:02:37;3.90;;;2.58;;
57389;SDS011;43217;52.694;6.214;2023-07-13T11:05:17;3.33;;;2.40;;
57389;SDS011;43217;52.694;6.214;2023-07-13T11:11:02;4.25;;;2.70;;
57389;SDS011;43217;52.694;6.214;2023-07-13T11:16:46;3.20;;;2.85;;
57389;SDS011;43217;52.694;6.214;2023-07-13T11:21:30;6.32;;;3.70;;
57389;SDS011;43217;52.694;6.214;2023-07-13T11:31:43;3.80;;;3.50;;
57389;SDS011;43217;52.694;6.214;2023-07-13T11:36:54;6.25;;;3.90;;
57389;SDS011;43217;52.694;6.214;2023-07-13T11:41:53;4.85;;;3.30;;
57389;SDS011;43217;52.694;6.214;2023-07-13T11:44:22;5.65;;;2.20;;
57389;SDS011;43217;52.694;6.214;2023-07-13T11:46:56;4.35;;;1.92;;
57389;SDS011;43217;52.694;6.214;2023-07-13T11:49:26;3.95;;;2.05;;
57389;SDS011;43217;52.694;6.214;2023-07-13T11:51:54;4.10;;;2.10;;
57389;SDS011;43217;52.694;6.214;2023-07-13T11:56:48;3.88;;;2.17;;
57389;SDS011;43217;52.694;6.214;2023-07-13T11:59:14;2.80;;;1.80;;
57389;SDS011;43217;52.694;6.214;2023-07-13T12:01:46;3.37;;;1.90;;
57389;SDS011;43217;52.694;6.214;2023-07-13T12:04:27;3.53;;;2.47;;
57389;SDS011;43217;52.694;6.214;2023-07-13T12:06:57;4.68;;;2.20;;
57389;SDS011;43217;52.694;6.214;2023-07-13T12:09:34;3.88;;;2.00;;
57389;SDS011;43217;52.694;6.214;2023-07-13T12:12:01;3.97;;;1.90;;
57389;SDS011;43217;52.694;6.214;2023-07-13T12:14:28;5.00;;;1.90;;
57389;SDS011;43217;52.694;6.214;2023-07-13T12:16:54;3.50;;;1.85;;
57389;SDS011;43217;52.694;6.214;2023-07-13T12:19:27;4.00;;;1.92;;
57389;SDS011;43217;52.694;6.214;2023-07-13T12:21:56;4.70;;;2.13;;
57389;SDS011;43217;52.694;6.214;2023-07-13T12:24:23;3.55;;;1.70;;
57389;SDS011;43217;52.694;6.214;2023-07-13T12:26:59;4.55;;;1.77;;
57389;SDS011;43217;52.694;6.214;2023-07-13T12:29:27;2.95;;;1.75;;
57389;SDS011;43217;52.694;6.214;2023-07-13T12:31:53;3.17;;;1.60;;
57389;SDS011;43217;52.694;6.214;2023-07-13T12:34:22;3.50;;;2.05;;
57389;SDS011;43217;52.694;6.214;2023-07-13T12:39:26;3.55;;;1.67;;
57389;SDS011;43217;52.694;6.214;2023-07-13T12:42:13;2.45;;;1.83;;
57389;SDS011;43217;52.694;6.214;2023-07-13T12:44:42;2.50;;;1.58;;
57389;SDS011;43217;52.694;6.214;2023-07-13T12:47:11;3.17;;;1.58;;
57389;SDS011;43217;52.694;6.214;2023-07-13T12:49:43;3.45;;;1.60;;
57389;SDS011;43217;52.694;6.214;2023-07-13T12:52:19;3.47;;;2.00;;
57389;SDS011;43217;52.694;6.214;2023-07-13T12:54:56;3.20;;;1.83;;
57389;SDS011;43217;52.694;6.214;2023-07-13T12:57:27;3.85;;;1.92;;
57389;SDS011;43217;52.694;6.214;2023-07-13T12:59:53;3.90;;;1.70;;
57389;SDS011;43217;52.694;6.214;2023-07-13T13:02:34;3.40;;;1.60;;
57389;SDS011;43217;52.694;6.214;2023-07-13T13:05:01;1.60;;;1.40;;
57389;SDS011;43217;52.694;6.214;2023-07-13T13:07:29;3.42;;;1.50;;
57389;SDS011;43217;52.694;6.214;2023-07-13T13:09:55;3.25;;;1.70;;
57389;SDS011;43217;52.694;6.214;2023-07-13T13:12:21;3.35;;;1.48;;
57389;SDS011;43217;52.694;6.214;2023-07-13T13:14:47;5.10;;;1.83;;
57389;SDS011;43217;52.694;6.214;2023-07-13T13:19:52;5.00;;;1.70;;
57389;SDS011;43217;52.694;6.214;2023-07-13T13:22:19;2.28;;;1.33;;
57389;SDS011;43217;52.694;6.214;2023-07-13T13:24:45;2.97;;;1.65;;
57389;SDS011;43217;52.694;6.214;2023-07-13T13:27:19;3.80;;;1.63;;
57389;SDS011;43217;52.694;6.214;2023-07-13T13:29:50;3.33;;;1.38;;
57389;SDS011;43217;52.694;6.214;2023-07-13T13:32:17;2.75;;;1.70;;
57389;SDS011;43217;52.694;6.214;2023-07-13T13:34:44;5.13;;;1.75;;
57389;SDS011;43217;52.694;6.214;2023-07-13T13:37:17;4.85;;;1.77;;
57389;SDS011;43217;52.694;6.214;2023-07-13T13:39:45;4.03;;;1.33;;
57389;SDS011;43217;52.694;6.214;2023-07-13T13:42:12;3.65;;;1.60;;
57389;SDS011;43217;52.694;6.214;2023-07-13T13:44:39;5.67;;;2.20;;
57389;SDS011;43217;52.694;6.214;2023-07-13T13:47:19;1.75;;;1.30;;
57389;SDS011;43217;52.694;6.214;2023-07-13T13:50:11;3.40;;;1.52;;
57389;SDS011;43217;52.694;6.214;2023-07-13T13:52:42;2.70;;;1.70;;
57389;SDS011;43217;52.694;6.214;2023-07-13T13:55:18;3.50;;;1.50;;
57389;SDS011;43217;52.694;6.214;2023-07-13T13:57:46;4.50;;;2.35;;
57389;SDS011;43217;52.694;6.214;2023-07-13T14:00:12;4.70;;;1.95;;
57389;SDS011;43217;52.694;6.214;2023-07-13T14:05:19;2.13;;;1.63;;
57389;SDS011;43217;52.694;6.214;2023-07-13T14:07:47;3.47;;;1.77;;
57389;SDS011;43217;52.694;6.214;2023-07-13T14:10:15;2.80;;;1.80;;
57389;SDS011;43217;52.694;6.214;2023-07-13T14:12:43;3.35;;;1.63;;
57389;SDS011;43217;52.694;6.214;2023-07-13T14:15:21;3.55;;;2.00;;
57389;SDS011;43217;52.694;6.214;2023-07-13T14:17:49;2.83;;;1.70;;
57389;SDS011;43217;52.694;6.214;2023-07-13T14:20:15;4.03;;;1.90;;
57389;SDS011;43217;52.694;6.214;2023-07-13T14:22:45;3.53;;;2.00;;
57389;SDS011;43217;52.694;6.214;2023-07-13T14:25:11;3.45;;;1.90;;
57389;SDS011;43217;52.694;6.214;2023-07-13T14:27:38;3.40;;;2.10;;
57389;SDS011;43217;52.694;6.214;2023-07-13T14:30:12;3.63;;;1.63;;
57389;SDS011;43217;52.694;6.214;2023-07-13T14:32:37;3.58;;;1.70;;
57389;SDS011;43217;52.694;6.214;2023-07-13T14:35:03;3.85;;;1.60;;
57389;SDS011;43217;52.694;6.214;2023-07-13T14:37:29;2.40;;;1.80;;
57389;SDS011;43217;52.694;6.214;2023-07-13T14:39:55;3.40;;;1.65;;
57389;SDS011;43217;52.694;6.214;2023-07-13T14:42:21;2.95;;;1.80;;
57389;SDS011;43217;52.694;6.214;2023-07-13T14:44:47;3.97;;;2.00;;
57389;SDS011;43217;52.694;6.214;2023-07-13T14:47:12;3.50;;;1.85;;
57389;SDS011;43217;52.694;6.214;2023-07-13T14:49:39;3.35;;;2.40;;
57389;SDS011;43217;52.694;6.214;2023-07-13T14:52:11;2.78;;;1.73;;
57389;SDS011;43217;52.694;6.214;2023-07-13T14:54:40;4.35;;;2.05;;
57389;SDS011;43217;52.694;6.214;2023-07-13T14:57:12;3.65;;;1.67;;
57389;SDS011;43217;52.694;6.214;2023-07-13T14:59:39;3.60;;;2.00;;
57389;SDS011;43217;52.694;6.214;2023-07-13T15:04:43;3.17;;;1.98;;
57389;SDS011;43217;52.694;6.214;2023-07-13T15:07:09;4.43;;;2.30;;
57389;SDS011;43217;52.694;6.214;2023-07-13T15:09:37;4.80;;;2.03;;
57389;SDS011;43217;52.694;6.214;2023-07-13T15:12:03;7.32;;;4.25;;
57389;SDS011;43217;52.694;6.214;2023-07-13T15:14:30;7.57;;;3.10;;
57389;SDS011;43217;52.694;6.214;2023-07-13T15:16:56;6.43;;;2.00;;
57389;SDS011;43217;52.694;6.214;2023-07-13T15:19:22;5.90;;;2.67;;
57389;SDS011;43217;52.694;6.214;2023-07-13T15:21:50;4.03;;;2.05;;
57389;SDS011;43217;52.694;6.214;2023-07-13T15:24:17;2.72;;;1.70;;
57389;SDS011;43217;52.694;6.214;2023-07-13T15:26:43;4.28;;;1.88;;
57389;SDS011;43217;52.694;6.214;2023-07-13T15:29:12;3.33;;;1.90;;
57389;SDS011;43217;52.694;6.214;2023-07-13T15:31:38;4.25;;;2.42;;
57389;SDS011;43217;52.694;6.214;2023-07-13T15:34:09;2.80;;;2.03;;
57389;SDS011;43217;52.694;6.214;2023-07-13T15:36:37;4.30;;;2.08;;
57389;SDS011;43217;52.694;6.214;2023-07-13T15:39:03;4.97;;;2.40;;
57389;SDS011;43217;52.694;6.214;2023-07-13T15:41:28;4.00;;;1.65;;
57389;SDS011;43217;52.694;6.214;2023-07-13T15:43:55;3.63;;;1.75;;
57389;SDS011;43217;52.694;6.214;2023-07-13T15:46:26;2.65;;;1.70;;
57389;SDS011;43217;52.694;6.214;2023-07-13T15:48:53;3.60;;;1.70;;
57389;SDS011;43217;52.694;6.214;2023-07-13T15:51:29;3.72;;;1.95;;
57389;SDS011;43217;52.694;6.214;2023-07-13T15:54:01;3.65;;;1.95;;
57389;SDS011;43217;52.694;6.214;2023-07-13T15:56:32;3.67;;;2.00;;
57389;SDS011;43217;52.694;6.214;2023-07-13T15:59:00;3.60;;;1.85;;